createdAt,value
2018-04-19T00:00:41.313Z,3.80
2018-04-19T00:02:44.124Z,3.83
2018-04-19T00:04:46.719Z,3.47
2018-04-19T00:06:50.835Z,3.50
2018-04-19T00:08:53.526Z,3.47
2018-04-19T00:10:56.362Z,3.20
2018-04-19T00:12:59.055Z,3.63
2018-04-19T00:15:02.532Z,3.73
2018-04-19T00:17:06.714Z,3.10
2018-04-19T00:19:09.306Z,3.50
2018-04-19T00:21:13.529Z,3.50
2018-04-19T00:23:17.634Z,3.50
2018-04-19T00:25:20.230Z,3.27
2018-04-19T00:27:23.707Z,4.10
2018-04-19T00:29:26.346Z,3.50
2018-04-19T00:31:28.933Z,3.87
2018-04-19T00:33:31.955Z,3.43
2018-04-19T00:35:35.302Z,3.33
2018-04-19T00:37:37.881Z,4.20
2018-04-19T00:41:50.543Z,3.60
2018-04-19T00:43:53.912Z,3.50
2018-04-19T00:45:56.494Z,3.73
2018-04-19T00:47:59.291Z,3.27
2018-04-19T00:50:02.689Z,3.70
2018-04-19T00:52:05.273Z,4.23
2018-04-19T00:54:07.898Z,3.83
2018-04-19T00:56:10.477Z,3.60
2018-04-19T00:58:13.061Z,3.43
2018-04-19T01:00:15.689Z,3.30
2018-04-19T01:02:18.272Z,3.87
2018-04-19T01:04:20.853Z,3.53
2018-04-19T01:06:23.469Z,3.70
2018-04-19T01:08:26.850Z,3.50
2018-04-19T01:10:29.525Z,3.90
2018-04-19T01:12:32.153Z,3.57
2018-04-19T01:14:34.733Z,3.50
2018-04-19T01:16:37.347Z,3.90
2018-04-19T01:18:40.129Z,4.33
2018-04-19T01:20:42.716Z,4.40
2018-04-19T01:22:46.061Z,3.70
2018-04-19T01:24:48.689Z,3.87
2018-04-19T01:26:52.163Z,4.10
2018-04-19T01:28:54.839Z,3.10
2018-04-19T01:30:57.629Z,4.37
2018-04-19T01:33:00.981Z,3.77
2018-04-19T01:35:03.604Z,3.87
2018-04-19T01:37:07.178Z,3.78
2018-04-19T01:39:09.854Z,3.50
2018-04-19T01:41:12.504Z,4.23
2018-04-19T01:43:15.122Z,4.07
2018-04-19T01:45:18.470Z,3.23
2018-04-19T01:47:21.054Z,4.00
2018-04-19T01:49:23.669Z,3.97
2018-04-19T01:51:26.260Z,3.80
2018-04-19T01:53:28.850Z,3.43
2018-04-19T01:55:31.572Z,4.10
2018-04-19T01:57:35.677Z,3.90
2018-04-19T01:59:38.352Z,3.73
2018-04-19T02:01:40.973Z,3.70
2018-04-19T02:03:43.581Z,4.00
2018-04-19T02:05:46.158Z,3.90
2018-04-19T02:07:48.798Z,4.00
2018-04-19T02:09:51.395Z,4.60
2018-04-19T02:11:53.973Z,4.07
2018-04-19T02:13:56.581Z,3.93
2018-04-19T02:15:59.939Z,5.27
2018-04-19T02:18:02.518Z,3.77
2018-04-19T02:20:05.318Z,3.60
2018-04-19T02:22:07.897Z,4.23
2018-04-19T02:24:10.590Z,3.75
2018-04-19T02:26:13.975Z,4.50
2018-04-19T02:28:17.347Z,3.80
2018-04-19T02:30:20.030Z,4.50
2018-04-19T02:32:22.910Z,4.67
2018-04-19T02:34:25.500Z,4.40
2018-04-19T02:36:28.876Z,4.80
2018-04-19T02:38:31.867Z,4.60
2018-04-19T02:40:35.966Z,4.60
2018-04-19T02:42:40.054Z,5.33
2018-04-19T02:44:42.677Z,3.87
2018-04-19T02:46:46.023Z,5.17
2018-04-19T02:48:48.636Z,4.90
2018-04-19T02:50:52.022Z,4.53
2018-04-19T02:52:55.382Z,4.90
2018-04-19T02:54:58.074Z,4.77
2018-04-19T02:57:00.679Z,5.70
2018-04-19T02:59:03.271Z,4.90
2018-04-19T03:01:05.861Z,5.17
2018-04-19T03:03:08.514Z,5.30
2018-04-19T03:05:11.101Z,5.17
2018-04-19T03:07:13.698Z,5.53
2018-04-19T03:09:16.718Z,5.57
2018-04-19T03:11:20.080Z,6.27
2018-04-19T03:13:22.781Z,5.70
2018-04-19T03:15:25.855Z,5.73
2018-04-19T03:17:28.505Z,5.10
2018-04-19T03:19:31.101Z,5.03
2018-04-19T03:21:33.786Z,5.20
2018-04-19T03:23:36.391Z,6.53
2018-04-19T03:25:38.972Z,5.83
2018-04-19T03:27:41.677Z,5.30
2018-04-19T03:29:44.265Z,5.87
2018-04-19T03:31:47.630Z,5.33
2018-04-19T03:33:50.257Z,5.87
2018-04-19T03:35:53.600Z,5.70
2018-04-19T03:37:56.211Z,5.77
2018-04-19T03:39:58.817Z,5.20
2018-04-19T03:42:01.405Z,4.70
2018-04-19T03:44:03.993Z,5.57
2018-04-19T03:46:06.822Z,5.63
2018-04-19T03:48:10.173Z,5.47
2018-04-19T03:50:12.762Z,6.27
2018-04-19T03:52:15.481Z,5.30
2018-04-19T03:54:18.072Z,5.53
2018-04-19T03:56:20.657Z,6.57
2018-04-19T03:58:23.378Z,5.60
2018-04-19T04:00:26.054Z,6.00
2018-04-19T04:02:28.642Z,5.30
2018-04-19T04:04:32.226Z,5.80
2018-04-19T04:06:34.809Z,5.33
2018-04-19T04:08:37.577Z,6.30
2018-04-19T04:10:42.198Z,5.43
2018-04-19T04:12:44.801Z,5.27
2018-04-19T04:14:47.521Z,5.93
2018-04-19T04:17:02.526Z,5.90
2018-04-19T04:19:17.810Z,5.47
2018-04-19T04:21:21.158Z,5.70
2018-04-19T04:23:44.825Z,6.20
2018-04-19T04:25:47.406Z,5.30
2018-04-19T04:27:50.015Z,5.47
2018-04-19T04:29:52.841Z,5.72
2018-04-19T04:31:55.417Z,5.23
2018-04-19T04:33:58.018Z,6.10
2018-04-19T04:36:00.915Z,6.13
2018-04-19T04:38:04.274Z,6.10
2018-04-19T04:40:06.866Z,5.43
2018-04-19T04:42:09.482Z,5.40
2018-04-19T04:44:12.070Z,5.63
2018-04-19T04:46:14.661Z,5.53
2018-04-19T04:48:17.310Z,5.70
2018-04-19T04:50:19.917Z,5.77
2018-04-19T04:52:22.638Z,4.97
2018-04-19T04:54:26.211Z,6.30
2018-04-19T04:56:28.806Z,5.20
2018-04-19T04:58:32.161Z,5.73
2018-04-19T05:00:35.182Z,4.87
2018-04-19T05:02:38.552Z,5.40
2018-04-19T05:04:41.160Z,5.60
2018-04-19T05:06:43.779Z,5.60
2018-04-19T05:08:46.374Z,5.47
2018-04-19T05:10:49.050Z,5.60
2018-04-19T05:12:51.932Z,5.13
2018-04-19T05:14:54.607Z,5.43
2018-04-19T05:16:57.185Z,6.20
2018-04-19T05:18:59.817Z,5.83
2018-04-19T05:21:02.408Z,5.87
2018-04-19T05:23:05.118Z,5.57
2018-04-19T05:25:08.702Z,6.10
2018-04-19T05:27:11.356Z,5.60
2018-04-19T05:29:13.939Z,5.83
2018-04-19T05:31:16.832Z,5.90
2018-04-19T05:33:19.423Z,6.13
2018-04-19T05:35:22.807Z,5.80
2018-04-19T05:37:26.212Z,6.10
2018-04-19T05:39:29.563Z,6.80
2018-04-19T05:41:32.158Z,6.70
2018-04-19T05:43:34.781Z,6.13
2018-04-19T05:45:37.368Z,6.90
2018-04-19T05:47:39.958Z,6.00
2018-04-19T05:49:42.579Z,5.73
2018-04-19T05:51:45.925Z,6.30
2018-04-19T05:53:48.523Z,5.63
2018-04-19T05:55:52.015Z,6.43
2018-04-19T05:57:54.598Z,6.53
2018-04-19T05:59:57.365Z,5.63
2018-04-19T06:02:00.162Z,6.73
2018-04-19T06:04:03.522Z,6.60
2018-04-19T06:06:06.136Z,5.73
2018-04-19T06:08:09.827Z,6.57
2018-04-19T06:10:13.177Z,7.17
2018-04-19T06:12:15.798Z,6.17
2018-04-19T06:14:19.396Z,8.17
2018-04-19T06:16:22.868Z,6.57
2018-04-19T06:18:25.481Z,6.43
2018-04-19T06:20:28.233Z,6.70
2018-04-19T06:22:31.721Z,6.50
2018-04-19T06:24:34.330Z,6.23
2018-04-19T06:26:36.950Z,7.67
2018-04-19T06:28:39.642Z,6.53
2018-04-19T06:30:42.234Z,6.97
2018-04-19T06:32:45.825Z,6.90
2018-04-19T06:34:49.189Z,7.20
2018-04-19T06:36:51.878Z,6.03
2018-04-19T06:38:54.507Z,6.40
2018-04-19T06:40:57.094Z,7.47
2018-04-19T06:42:59.804Z,7.10
2018-04-19T06:45:03.958Z,6.27
2018-04-19T06:47:07.381Z,7.30
2018-04-19T06:49:09.991Z,7.10
2018-04-19T06:51:13.633Z,6.97
2018-04-19T06:53:16.230Z,7.07
2018-04-19T06:55:18.930Z,7.30
2018-04-19T06:57:21.720Z,6.97
2018-04-19T06:59:25.079Z,7.53
2018-04-19T07:01:27.678Z,7.67
2018-04-19T07:03:31.082Z,8.20
2018-04-19T07:05:34.428Z,8.40
2018-04-19T07:07:37.023Z,8.60
2018-04-19T07:09:39.661Z,7.50
2018-04-19T07:11:42.281Z,7.60
2018-04-19T07:13:44.957Z,8.00
2018-04-19T07:15:47.577Z,7.30
2018-04-19T07:17:50.174Z,6.07
2018-04-19T07:19:52.770Z,6.63
2018-04-19T07:21:55.866Z,6.23
2018-04-19T07:23:58.452Z,7.10
2018-04-19T07:26:01.808Z,7.57
2018-04-19T07:28:04.418Z,7.33
2018-04-19T07:30:07.900Z,9.00
2018-04-19T07:32:12.338Z,8.93
2018-04-19T07:34:15.722Z,8.03
2018-04-19T07:36:19.086Z,7.00
2018-04-19T07:38:21.699Z,8.23
2018-04-19T07:40:25.286Z,8.20
2018-04-19T07:42:28.665Z,7.50
2018-04-19T07:44:31.443Z,8.00
2018-04-19T07:46:34.210Z,8.47
2018-04-19T07:48:36.791Z,7.93
2018-04-19T07:50:40.893Z,8.30
2018-04-19T07:52:43.525Z,8.33
2018-04-19T07:54:46.118Z,7.37
2018-04-19T07:56:48.727Z,7.90
2018-04-19T07:58:51.522Z,6.43
2018-04-19T08:00:54.877Z,7.10
2018-04-19T08:02:57.599Z,8.20
2018-04-19T08:05:01.005Z,6.97
2018-04-19T08:07:03.911Z,7.03
2018-04-19T08:09:07.806Z,7.20
2018-04-19T08:11:10.777Z,7.33
2018-04-19T08:13:13.702Z,6.53
2018-04-19T08:15:17.389Z,7.23
2018-04-19T08:17:21.219Z,7.53
2018-04-19T08:19:24.956Z,8.10
2018-04-19T08:21:28.623Z,6.93
2018-04-19T08:23:32.426Z,6.77
2018-04-19T08:25:35.417Z,5.70
2018-04-19T08:27:38.363Z,6.13
2018-04-19T08:29:41.780Z,7.47
2018-04-19T08:31:44.817Z,5.70
2018-04-19T08:33:47.743Z,5.80
2018-04-19T08:35:51.458Z,5.80
2018-04-19T08:37:54.386Z,6.00
2018-04-19T08:39:57.411Z,6.37
2018-04-19T08:42:01.436Z,6.50
2018-04-19T08:44:04.353Z,5.43
2018-04-19T08:46:07.280Z,5.90
2018-04-19T08:48:11.002Z,6.00
2018-04-19T08:50:13.969Z,5.67
2018-04-19T08:52:16.857Z,5.80
2018-04-19T08:54:19.798Z,5.83
2018-04-19T08:56:22.794Z,5.67
2018-04-19T08:58:25.794Z,5.43
2018-04-19T09:00:29.601Z,4.70
2018-04-19T09:02:33.295Z,5.20
2018-04-19T09:04:36.971Z,4.67
2018-04-19T09:06:39.932Z,4.43
2018-04-19T09:08:42.843Z,4.23
2018-04-19T09:10:47.291Z,4.53
2018-04-19T09:12:50.249Z,4.70
2018-04-19T09:14:53.929Z,4.40
2018-04-19T09:16:57.044Z,5.20
2018-04-19T09:19:00.766Z,5.20
2018-04-19T09:21:03.702Z,4.40
2018-04-19T09:23:08.148Z,4.33
2018-04-19T09:25:11.949Z,6.20
2018-04-19T09:27:14.918Z,4.60
2018-04-19T09:29:17.821Z,4.23
2018-04-19T09:31:20.772Z,4.70
2018-04-19T09:33:23.686Z,5.17
2018-04-19T09:35:27.372Z,4.13
2018-04-19T09:37:31.089Z,5.03
2018-04-19T09:39:34.050Z,4.67
2018-04-19T09:41:38.441Z,4.73
2018-04-19T09:43:41.492Z,4.30
2018-04-19T09:45:44.446Z,5.00
2018-04-19T09:47:48.125Z,4.57
2018-04-19T09:49:51.847Z,3.83
2018-04-19T09:51:54.769Z,3.90
2018-04-19T09:53:58.537Z,4.37
2018-04-19T09:56:02.350Z,3.87
2018-04-19T09:58:09.129Z,4.30
2018-04-19T10:00:12.045Z,4.00
2018-04-19T10:02:14.997Z,4.60
2018-04-19T10:04:33.917Z,4.47
2018-04-19T10:06:36.503Z,4.60
2018-04-19T10:08:39.572Z,4.40
2018-04-19T10:10:43.263Z,3.87
2018-04-19T10:12:46.190Z,4.00
2018-04-19T10:14:49.546Z,3.87
2018-04-19T10:16:53.223Z,4.50
2018-04-19T10:18:56.149Z,4.57
2018-04-19T10:20:59.941Z,4.70
2018-04-19T10:23:02.862Z,3.53
2018-04-19T10:25:05.900Z,4.20
2018-04-19T10:27:10.006Z,3.40
2018-04-19T10:29:13.679Z,4.10
2018-04-19T10:31:16.713Z,4.20
2018-04-19T10:33:19.786Z,3.90
2018-04-19T10:35:22.702Z,3.80
2018-04-19T10:37:25.709Z,3.97
2018-04-19T10:39:28.653Z,4.03
2018-04-19T10:41:31.586Z,3.87
2018-04-19T10:43:35.273Z,4.13
2018-04-19T10:45:38.499Z,3.63
2018-04-19T10:47:42.169Z,3.83
2018-04-19T10:49:45.087Z,3.97
2018-04-19T10:51:48.022Z,3.47
2018-04-19T10:53:51.037Z,4.10
2018-04-19T10:55:54.897Z,4.43
2018-04-19T10:57:58.335Z,4.33
2018-04-19T11:00:02.049Z,3.97
2018-04-19T11:02:04.965Z,3.93
2018-04-19T11:04:07.910Z,3.23
2018-04-19T11:06:10.881Z,3.90
2018-04-19T11:08:14.554Z,4.00
2018-04-19T11:10:17.520Z,4.30
2018-04-19T11:12:20.422Z,3.80
2018-04-19T11:14:23.333Z,4.10
2018-04-19T11:16:26.289Z,3.80
2018-04-19T11:18:29.279Z,4.40
2018-04-19T11:20:32.962Z,3.80
2018-04-19T11:22:35.939Z,4.20
2018-04-19T11:24:38.956Z,4.83
2018-04-19T11:26:42.656Z,4.70
2018-04-19T11:28:46.777Z,4.70
2018-04-19T11:30:50.157Z,3.73
2018-04-19T11:32:52.854Z,4.47
2018-04-19T11:34:56.327Z,4.33
2018-04-19T11:36:59.006Z,4.20
2018-04-19T11:39:01.679Z,4.40
2018-04-19T11:41:04.291Z,4.47
2018-04-19T11:43:06.878Z,4.60
2018-04-19T11:45:09.462Z,3.63
2018-04-19T11:47:12.280Z,4.37
2018-04-19T11:49:14.863Z,4.30
2018-04-19T11:51:18.210Z,4.20
2018-04-19T11:53:20.846Z,4.20
2018-04-19T11:55:24.315Z,4.10
2018-04-19T11:57:26.966Z,3.90
2018-04-19T11:59:29.590Z,3.87
2018-04-19T12:01:33.059Z,4.43
2018-04-19T12:03:35.694Z,4.20
2018-04-19T12:05:38.386Z,4.10
2018-04-19T12:07:40.997Z,4.50
2018-04-19T12:09:44.364Z,3.83
2018-04-19T12:11:47.070Z,4.00
2018-04-19T12:13:50.426Z,4.33
2018-04-19T12:15:53.121Z,4.13
2018-04-19T12:17:55.745Z,3.70
2018-04-19T12:19:58.340Z,4.03
2018-04-19T12:22:00.922Z,4.27
2018-04-19T12:24:03.543Z,3.90
2018-04-19T12:26:06.898Z,3.77
2018-04-19T12:28:09.602Z,3.60
2018-04-19T12:30:12.977Z,3.73
2018-04-19T12:32:15.596Z,3.53
2018-04-19T12:34:18.179Z,3.83
2018-04-19T12:36:20.881Z,3.67
2018-04-19T12:38:23.582Z,4.20
2018-04-19T12:40:26.167Z,3.93
2018-04-19T12:42:29.662Z,3.17
2018-04-19T12:44:33.013Z,3.13
2018-04-19T12:46:35.818Z,3.30
2018-04-19T12:48:38.506Z,3.50
2018-04-19T12:50:41.858Z,3.40
2018-04-19T12:52:44.441Z,3.20
2018-04-19T12:54:47.253Z,3.13
2018-04-19T12:56:50.601Z,4.37
2018-04-19T12:58:53.198Z,2.97
2018-04-19T13:00:56.054Z,3.50
2018-04-19T13:02:58.633Z,3.07
2018-04-19T13:05:01.334Z,3.33
2018-04-19T13:07:04.045Z,3.63
2018-04-19T13:09:06.701Z,3.40
2018-04-19T13:11:10.055Z,3.27
2018-04-19T13:13:12.753Z,3.40
2018-04-19T13:15:15.342Z,2.67
2018-04-19T13:17:18.685Z,3.10
2018-04-19T13:19:21.424Z,3.70
2018-04-19T13:21:24.773Z,2.40
2018-04-19T13:23:27.359Z,2.77
2018-04-19T13:25:30.064Z,3.70
2018-04-19T13:27:33.412Z,2.97
2018-04-19T13:29:36.021Z,2.90
2018-04-19T13:31:39.436Z,3.27
2018-04-19T13:33:42.154Z,2.27
2018-04-19T13:35:44.869Z,2.60
2018-04-19T13:37:48.601Z,3.13
2018-04-19T13:39:51.246Z,2.00
2018-04-19T13:41:54.686Z,2.43
2018-04-19T13:43:57.606Z,2.03
2018-04-19T13:46:01.302Z,2.30
2018-04-19T13:48:03.897Z,2.43
2018-04-19T13:50:07.285Z,2.70
2018-04-19T13:52:10.786Z,3.50
2018-04-19T13:54:14.252Z,2.67
2018-04-19T13:56:16.958Z,2.93
2018-04-19T13:58:19.570Z,2.20
2018-04-19T14:00:22.161Z,2.40
2018-04-19T14:02:25.070Z,2.47
2018-04-19T14:04:28.430Z,2.17
2018-04-19T14:06:31.440Z,1.70
2018-04-19T14:08:35.147Z,2.10
2018-04-19T14:10:38.634Z,1.93
2018-04-19T14:12:41.308Z,2.30
2018-04-19T14:14:43.914Z,2.13
2018-04-19T14:16:46.506Z,2.27
2018-04-19T14:18:49.106Z,2.30
2018-04-19T14:20:52.042Z,2.67
2018-04-19T14:22:55.382Z,2.17
2018-04-19T14:24:57.978Z,1.93
2018-04-19T14:27:00.981Z,2.15
2018-04-19T14:29:04.331Z,2.20
2018-04-19T14:31:07.034Z,2.23
2018-04-19T14:33:09.573Z,2.10
2018-04-19T14:35:12.157Z,1.90
2018-04-19T14:37:14.851Z,2.33
2018-04-19T14:39:17.455Z,2.20
2018-04-19T14:41:20.050Z,2.15
2018-04-19T14:43:22.639Z,2.13
2018-04-19T14:45:25.357Z,2.10
2018-04-19T14:47:28.722Z,2.13
2018-04-19T14:49:31.318Z,2.20
2018-04-19T14:51:33.935Z,2.03
2018-04-19T14:53:36.516Z,2.10
2018-04-19T14:55:39.102Z,2.20
2018-04-19T14:57:41.868Z,2.43
2018-04-19T14:59:45.185Z,2.00
2018-04-19T15:01:47.780Z,2.07
2018-04-19T15:03:50.395Z,2.00
2018-04-19T15:05:52.993Z,1.63
2018-04-19T15:07:55.907Z,1.80
2018-04-19T15:09:59.711Z,2.10
2018-04-19T15:12:02.797Z,3.27
2018-04-19T15:14:06.473Z,1.60
2018-04-19T15:16:09.427Z,2.03
2018-04-19T15:18:12.342Z,2.20
2018-04-19T15:20:15.273Z,2.03
2018-04-19T15:22:18.610Z,3.03
2018-04-19T15:24:21.526Z,2.00
2018-04-19T15:26:25.322Z,2.00
2018-04-19T15:28:29.047Z,2.10
2018-04-19T15:30:32.273Z,2.47
2018-04-19T15:32:35.289Z,2.20
2018-04-19T15:34:38.375Z,2.40
2018-04-19T15:36:42.047Z,1.67
2018-04-19T15:38:44.955Z,1.80
2018-04-19T15:40:48.760Z,2.13
2018-04-19T15:42:52.460Z,1.73
2018-04-19T15:44:56.269Z,2.23
2018-04-19T15:46:59.222Z,1.70
2018-04-19T15:49:02.175Z,1.40
2018-04-19T15:51:05.110Z,1.70
2018-04-19T15:53:08.844Z,2.13
2018-04-19T15:55:11.767Z,1.87
2018-04-19T15:57:14.798Z,2.45
2018-04-19T15:59:18.078Z,1.87
2018-04-19T16:01:21.002Z,2.17
2018-04-19T16:03:24.030Z,2.33
2018-04-19T16:05:27.886Z,2.10
2018-04-19T16:07:30.789Z,2.47
2018-04-19T16:09:34.491Z,2.10
2018-04-19T16:11:37.442Z,1.87
2018-04-19T16:13:40.358Z,2.10
2018-04-19T16:15:43.269Z,2.03
2018-04-19T16:17:46.214Z,1.90
2018-04-19T16:19:49.148Z,1.50
2018-04-19T16:21:52.058Z,1.80
2018-04-19T16:23:55.003Z,1.80
2018-04-19T16:25:57.936Z,1.93
2018-04-19T16:28:00.878Z,2.17
2018-04-19T16:30:03.818Z,2.10
2018-04-19T16:32:07.498Z,2.00
2018-04-19T16:34:10.418Z,1.93
2018-04-19T16:36:13.393Z,1.40
2018-04-19T16:38:17.066Z,2.17
2018-04-19T16:40:20.076Z,1.90
2018-04-19T16:42:23.569Z,2.00
2018-04-19T16:44:27.246Z,1.97
2018-04-19T16:46:30.159Z,1.83
2018-04-19T16:48:33.105Z,1.60
2018-04-19T16:50:36.030Z,1.77
2018-04-19T16:52:38.941Z,1.80
2018-04-19T16:54:42.087Z,1.47
2018-04-19T16:56:45.954Z,1.73
2018-04-19T16:58:48.876Z,1.97
2018-04-19T17:00:52.578Z,1.83
2018-04-19T17:02:55.502Z,1.63
2018-04-19T17:04:58.432Z,2.00
2018-04-19T17:07:01.389Z,1.53
2018-04-19T17:09:04.303Z,1.50
2018-04-19T17:11:07.978Z,1.50
2018-04-19T17:13:11.737Z,1.83
2018-04-19T17:15:14.679Z,1.70
2018-04-19T17:17:18.362Z,1.57
2018-04-19T17:19:22.158Z,1.77
2018-04-19T17:21:25.213Z,1.73
2018-04-19T17:23:28.249Z,2.07
2018-04-19T17:25:32.050Z,2.07
2018-04-19T17:27:35.722Z,1.77
2018-04-19T17:29:38.636Z,1.70
2018-04-19T17:31:42.542Z,1.77
2018-04-19T17:33:45.518Z,1.70
2018-04-19T17:35:49.192Z,1.80
2018-04-19T17:37:52.214Z,2.10
2018-04-19T17:39:55.154Z,2.77
2018-04-19T17:41:58.081Z,1.90
2018-04-19T17:44:01.164Z,1.93
2018-04-19T17:46:04.104Z,1.80
2018-04-19T17:48:07.072Z,2.40
2018-04-19T17:50:10.134Z,1.87
2018-04-19T17:52:13.050Z,2.50
2018-04-19T17:54:16.066Z,1.97
2018-04-19T17:56:19.018Z,2.80
2018-04-19T17:58:22.031Z,2.00
2018-04-19T18:00:25.749Z,2.37
2018-04-19T18:02:29.022Z,2.40
2018-04-19T18:04:32.721Z,2.43
2018-04-19T18:06:36.558Z,2.50
2018-04-19T18:08:39.738Z,2.53
2018-04-19T18:10:42.653Z,2.07
2018-04-19T18:12:45.571Z,1.90
2018-04-19T18:14:49.417Z,2.53
2018-04-19T18:16:52.739Z,3.00
2018-04-19T18:18:56.599Z,3.10
2018-04-19T18:20:59.880Z,2.60
2018-04-19T18:23:02.850Z,2.70
2018-04-19T18:25:06.570Z,2.70
2018-04-19T18:27:09.518Z,2.90
2018-04-19T18:29:13.254Z,2.10
2018-04-19T18:31:16.311Z,2.80
2018-04-19T18:33:19.704Z,2.30
2018-04-19T18:35:23.403Z,1.90
2018-04-19T18:37:27.214Z,1.97
2018-04-19T18:39:31.440Z,2.20
2018-04-19T18:41:34.349Z,2.40
2018-04-19T18:43:37.516Z,2.00
2018-04-19T18:45:40.467Z,2.77
2018-04-19T18:47:44.602Z,2.73
2018-04-19T18:49:47.532Z,2.30
2018-04-19T18:51:50.781Z,2.50
2018-04-19T18:53:54.197Z,2.90
2018-04-19T18:55:57.450Z,3.17
2018-04-19T18:58:00.446Z,2.90
2018-04-19T19:00:03.381Z,2.80
2018-04-19T19:02:06.441Z,3.20
2018-04-19T19:04:09.777Z,2.80
2018-04-19T19:06:13.536Z,2.53
2018-04-19T19:08:16.566Z,2.83
2018-04-19T19:10:20.975Z,2.50
2018-04-19T19:12:24.694Z,2.10
2018-04-19T19:14:27.766Z,2.53
2018-04-19T19:16:31.053Z,2.30
2018-04-19T19:18:46.862Z,2.83
2018-04-19T19:20:49.773Z,2.20
2018-04-19T19:22:52.843Z,3.03
2018-04-19T19:24:55.966Z,3.00
2018-04-19T19:26:59.109Z,2.93
2018-04-19T19:29:02.175Z,2.70
2018-04-19T19:31:05.969Z,3.00
2018-04-19T19:33:09.879Z,2.30
2018-04-19T19:35:13.104Z,2.57
2018-04-19T19:37:16.039Z,3.40
2018-04-19T19:39:19.746Z,2.77
2018-04-19T19:41:22.722Z,2.80
2018-04-19T19:43:25.677Z,2.73
2018-04-19T19:45:28.653Z,2.10
2018-04-19T19:47:31.679Z,2.60
2018-04-19T19:49:35.354Z,2.90
2018-04-19T19:51:38.266Z,2.80
2018-04-19T19:53:41.228Z,2.90
2018-04-19T19:55:44.943Z,2.60
2018-04-19T19:57:48.621Z,3.10
2018-04-19T19:59:52.435Z,2.37
2018-04-19T20:01:55.546Z,2.57
2018-04-19T20:03:58.722Z,2.27
2018-04-19T20:06:01.673Z,2.57
2018-04-19T20:08:04.595Z,2.20
2018-04-19T20:10:07.504Z,2.63
2018-04-19T20:12:10.471Z,2.23
2018-04-19T20:14:13.402Z,2.50
2018-04-19T20:16:16.333Z,2.30
2018-04-19T20:18:19.385Z,2.50
2018-04-19T20:20:23.096Z,2.40
2018-04-19T20:22:26.023Z,3.00
2018-04-19T20:24:28.974Z,2.80
2018-04-19T20:26:31.894Z,2.77
2018-04-19T20:28:34.811Z,3.07
2018-04-19T20:30:38.515Z,2.70
2018-04-19T20:32:41.443Z,2.77
2018-04-19T20:34:44.353Z,2.60
2018-04-19T20:36:47.290Z,2.50
2018-04-19T20:38:50.222Z,2.70
2018-04-19T20:40:53.902Z,3.03
2018-04-19T20:42:56.842Z,2.53
2018-04-19T20:44:59.759Z,3.50
2018-04-19T20:47:02.745Z,2.53
2018-04-19T20:49:05.707Z,2.87
2018-04-19T20:51:08.615Z,3.80
2018-04-19T20:53:11.631Z,3.53
2018-04-19T20:55:15.630Z,3.90
2018-04-19T20:57:19.306Z,4.47
2018-04-19T20:59:23.752Z,3.23
2018-04-19T21:01:27.682Z,2.90
2018-04-19T21:03:30.594Z,3.10
2018-04-19T21:05:33.530Z,3.37
2018-04-19T21:07:37.327Z,2.50
2018-04-19T21:09:41.011Z,2.60
2018-04-19T21:11:45.422Z,3.17
2018-04-19T21:13:49.154Z,2.90
2018-04-19T21:15:52.082Z,2.40
2018-04-19T21:17:56.514Z,2.57
2018-04-19T21:19:59.488Z,2.70
2018-04-19T21:22:02.408Z,3.07
2018-04-19T21:24:05.337Z,2.10
2018-04-19T21:26:08.396Z,2.90
2018-04-19T21:28:11.457Z,2.23
2018-04-19T21:30:15.137Z,2.53
2018-04-19T21:32:18.097Z,2.77
2018-04-19T21:34:21.014Z,2.50
2018-04-19T21:36:24.698Z,2.10
2018-04-19T21:38:28.595Z,2.17
2018-04-19T21:40:31.607Z,2.90
2018-04-19T21:42:35.282Z,3.03
2018-04-19T21:44:38.220Z,2.33
2018-04-19T21:46:41.131Z,2.87
2018-04-19T21:48:44.065Z,2.47
2018-04-19T21:50:47.014Z,2.90
2018-04-19T21:52:49.918Z,2.20
2018-04-19T21:54:53.590Z,3.43
2018-04-19T21:56:56.804Z,2.97
2018-04-19T21:59:01.321Z,3.20
2018-04-19T22:01:04.990Z,2.67
2018-04-19T22:03:09.540Z,3.50
2018-04-19T22:05:13.342Z,3.73
2018-04-19T22:07:16.337Z,2.93
2018-04-19T22:09:19.318Z,2.80
2018-04-19T22:11:22.245Z,2.83
2018-04-19T22:13:25.162Z,2.90
2018-04-19T22:15:29.093Z,3.60
2018-04-19T22:17:32.010Z,3.33
2018-04-19T22:19:35.045Z,3.30
2018-04-19T22:21:39.154Z,2.97
2018-04-19T22:23:42.825Z,2.10
2018-04-19T22:25:45.836Z,2.70
2018-04-19T22:27:49.637Z,2.97
2018-04-19T22:29:53.329Z,3.00
2018-04-19T22:31:56.230Z,3.47
2018-04-19T22:33:59.407Z,2.63
2018-04-19T22:36:03.107Z,3.20
2018-04-19T22:38:06.805Z,2.63
2018-04-19T22:40:10.586Z,2.93
2018-04-19T22:42:15.006Z,2.70
2018-04-19T22:44:18.698Z,2.53
2018-04-19T22:46:21.926Z,2.50
2018-04-19T22:48:24.849Z,3.17
2018-04-19T22:50:27.762Z,2.53
2018-04-19T22:52:31.505Z,2.70
2018-04-19T22:54:34.409Z,2.13
2018-04-19T22:56:37.342Z,2.83
2018-04-19T22:58:41.074Z,2.80
2018-04-19T23:00:44.003Z,2.77
2018-04-19T23:02:47.686Z,2.63
2018-04-19T23:04:50.625Z,2.80
2018-04-19T23:06:53.550Z,2.70
2018-04-19T23:08:56.568Z,2.70
2018-04-19T23:11:00.091Z,2.57
2018-04-19T23:13:03.001Z,3.07
2018-04-19T23:15:06.029Z,2.90
2018-04-19T23:17:09.285Z,2.77
2018-04-19T23:19:13.710Z,2.50
2018-04-19T23:21:16.630Z,3.20
2018-04-19T23:23:20.739Z,3.17
2018-04-19T23:25:23.658Z,3.00
2018-04-19T23:27:26.703Z,2.23
2018-04-19T23:29:29.880Z,2.67
2018-04-19T23:31:33.553Z,2.70
2018-04-19T23:33:36.561Z,2.13
2018-04-19T23:35:40.366Z,2.50
2018-04-19T23:37:44.241Z,2.60
2018-04-19T23:39:47.157Z,2.87
2018-04-19T23:41:50.109Z,2.13
2018-04-19T23:43:53.049Z,2.70
2018-04-19T23:45:55.973Z,2.83
2018-04-19T23:47:58.913Z,2.50
2018-04-19T23:50:01.843Z,2.90
2018-04-19T23:52:04.829Z,2.50
2018-04-19T23:54:08.543Z,3.27
2018-04-19T23:56:12.345Z,2.70
2018-04-19T23:58:16.018Z,2.83
